This is the latest recevied weather packets stored in our database for station/object WX6HNX-12. If no packets are shown the sender has not sent any weather packets the latest 10 day(s).
| Time | Temp. | Humidity | Pressure | Rain* | Wind** | Luminosity | Snow |
|---|---|---|---|---|---|---|---|
| 1777589008 | 27.78° C | 27% | 1010.3 hPa | 0 mm | - | - | - |
| 1777588708 | 27.78° C | 27% | 1010.3 hPa | 0 mm | - | - | - |
| 1777588409 | 28.33° C | 26% | 1010.4 hPa | 0 mm | - | - | - |
| 1777588107 | 27.78° C | 27% | 1010.5 hPa | 0 mm | - | - | - |
| 1777587807 | 27.78° C | 27% | 1010.6 hPa | 0 mm | - | - | - |
| 1777587508 | 27.78° C | 27% | 1010.7 hPa | 0 mm | - | - | - |
| 1777587207 | 27.22° C | 27% | 1010.7 hPa | 0 mm | - | - | - |
| 1777586679 | 27.78° C | 27% | 1010.9 hPa | 0 mm | - | - | - |
| 1777586379 | 27.78° C | 27% | 1010.8 hPa | 0 mm | - | - | - |
| 1777586079 | 28.33° C | 26% | 1010.9 hPa | 0 mm | - | - | - |
| 1777585179 | 27.78° C | 26% | 1011.3 hPa | 0 mm | - | - | - |
| 1777403508 | 19.44° C | 45% | 1018.3 hPa | 0 mm | - | - | - |
| 1777403209 | 18.89° C | 46% | 1018.3 hPa | 0 mm | - | - | - |
| 1777402908 | 18.89° C | 46% | 1018.3 hPa | 0 mm | - | - | - |
| 1777402609 | 18.89° C | 45% | 1018.5 hPa | 0 mm | - | - | - |
| 1777402309 | 19.44° C | 45% | 1018.6 hPa | 0 mm | - | - | - |
| 1777402008 | 19.44° C | 45% | 1018.6 hPa | 0 mm | - | - | - |
| 1777401708 | 18.89° C | 46% | 1018.7 hPa | 0 mm | - | - | - |
| 1777401408 | 18.89° C | 46% | 1018.9 hPa | 0 mm | - | - | - |
| 1777401108 | 18.89° C | 46% | 1018.9 hPa | 0 mm | - | - | - |
| 1777400808 | 18.89° C | 47% | 1018.9 hPa | 0 mm | - | - | - |
| 1777400509 | 18.33° C | 46% | 1018.8 hPa | 0 mm | - | - | - |
| 1777400209 | 18.33° C | 47% | 1018.9 hPa | 0 mm | - | - | - |
| 1777399802 | 18.33° C | 48% | 1019 hPa | 0 mm | - | - | - |
| 1777399502 | 18.33° C | 47% | 1019.2 hPa | 0 mm | - | - | - |
* Rain latest hour (hover to see other rain measurements)
** Current wind speed in m/s (hover to see current wind gust speed)